createdAt,value
2018-07-12T00:00:15.613Z,14.70
2018-07-12T00:02:43.569Z,15.57
2018-07-12T00:05:11.654Z,15.00
2018-07-12T00:07:39.585Z,14.90
2018-07-12T00:10:07.766Z,14.40
2018-07-12T00:12:35.660Z,13.57
2018-07-12T00:15:03.641Z,14.33
2018-07-12T00:17:31.552Z,13.43
2018-07-12T00:19:59.470Z,14.93
2018-07-12T00:22:27.421Z,13.60
2018-07-12T00:24:55.725Z,13.50
2018-07-12T00:27:23.683Z,13.80
2018-07-12T00:29:51.678Z,14.67
2018-07-12T00:32:19.610Z,15.03
2018-07-12T00:34:47.598Z,15.67
2018-07-12T00:37:15.542Z,16.60
2018-07-12T00:39:43.480Z,16.00
2018-07-12T00:42:11.432Z,15.37
2018-07-12T00:44:39.390Z,15.97
2018-07-12T00:47:07.325Z,17.10
2018-07-12T00:49:35.246Z,17.73
2018-07-12T00:52:03.225Z,19.53
2018-07-12T00:54:31.182Z,18.97
2018-07-12T00:56:59.154Z,20.77
2018-07-12T00:59:27.101Z,21.13
2018-07-12T01:01:55.033Z,20.37
2018-07-12T01:04:22.969Z,20.37
2018-07-12T01:06:50.924Z,20.70
2018-07-12T01:09:18.888Z,22.53
2018-07-12T01:11:46.819Z,19.50
2018-07-12T01:14:14.883Z,22.00
2018-07-12T01:16:42.849Z,19.27
2018-07-12T01:19:10.896Z,21.23
2018-07-12T01:21:38.848Z,22.87
2018-07-12T01:24:06.791Z,21.60
2018-07-12T01:26:34.791Z,22.17
2018-07-12T01:29:02.721Z,21.90
2018-07-12T01:31:30.680Z,23.73
2018-07-12T01:33:58.613Z,22.40
2018-07-12T01:36:26.599Z,21.47
2018-07-12T01:38:54.553Z,22.80
2018-07-12T01:41:22.500Z,23.90
2018-07-12T01:43:50.502Z,21.90
2018-07-12T01:46:18.461Z,22.87
2018-07-12T01:48:46.405Z,24.73
2018-07-12T01:51:14.371Z,23.37
2018-07-12T01:53:42.342Z,25.60
2018-07-12T01:56:10.323Z,23.23
2018-07-12T01:58:38.538Z,23.33
2018-07-12T02:01:06.392Z,22.70
2018-07-12T02:03:34.604Z,24.40
2018-07-12T02:06:02.506Z,22.87
2018-07-12T02:08:30.436Z,23.43
2018-07-12T02:10:58.392Z,22.40
2018-07-12T02:13:26.460Z,23.00
2018-07-12T02:15:54.441Z,23.17
2018-07-12T02:18:22.366Z,23.53
2018-07-12T02:20:50.282Z,24.80
2018-07-12T02:23:18.248Z,23.80
2018-07-12T02:25:46.208Z,24.07
2018-07-12T02:28:14.136Z,24.37
2018-07-12T02:30:42.111Z,23.70
2018-07-12T02:33:10.067Z,25.97
2018-07-12T02:35:38.064Z,24.43
2018-07-12T02:38:06.050Z,24.53
2018-07-12T02:40:33.976Z,24.97
2018-07-12T02:43:01.888Z,24.30
2018-07-12T02:45:29.858Z,23.57
2018-07-12T02:47:57.808Z,25.37
2018-07-12T02:50:25.760Z,24.23
2018-07-12T02:52:53.731Z,24.93
2018-07-12T02:55:21.718Z,26.27
2018-07-12T02:57:49.678Z,24.77
2018-07-12T03:00:17.607Z,25.13
2018-07-12T03:02:45.639Z,24.50
2018-07-12T03:05:13.604Z,23.73
2018-07-12T03:07:41.544Z,24.83
2018-07-12T03:10:09.476Z,24.77
2018-07-12T03:12:37.428Z,24.67
2018-07-12T03:15:05.394Z,22.97
2018-07-12T03:17:35.074Z,23.43
2018-07-12T03:20:03.052Z,22.40
2018-07-12T03:22:31.010Z,23.00
2018-07-12T03:24:58.954Z,24.17
2018-07-12T03:27:26.908Z,23.97
2018-07-12T03:29:54.836Z,23.73
2018-07-12T03:32:22.891Z,23.50
2018-07-12T03:34:50.860Z,22.90
2018-07-12T03:37:18.796Z,22.97
2018-07-12T03:39:46.726Z,21.50
2018-07-12T03:42:14.650Z,22.80
2018-07-12T03:44:42.737Z,24.27
2018-07-12T03:47:10.681Z,23.00
2018-07-12T03:49:38.688Z,23.97
2018-07-12T03:52:06.648Z,22.97
2018-07-12T03:54:34.581Z,23.17
2018-07-12T03:57:02.546Z,23.47
2018-07-12T03:59:30.478Z,23.00
2018-07-12T04:01:58.428Z,22.33
2018-07-12T04:04:26.455Z,21.80
2018-07-12T04:06:54.879Z,22.93
2018-07-12T04:09:22.811Z,22.87
2018-07-12T04:11:51.323Z,21.10
2018-07-12T04:14:19.287Z,23.73
2018-07-12T04:16:47.575Z,22.47
2018-07-12T04:19:15.449Z,22.60
2018-07-12T04:21:43.381Z,22.07
2018-07-12T04:24:11.313Z,22.60
2018-07-12T04:26:39.281Z,21.53
2018-07-12T04:29:07.269Z,21.77
2018-07-12T04:31:35.229Z,22.80
2018-07-12T04:34:03.185Z,23.63
2018-07-12T04:36:31.178Z,20.77
2018-07-12T04:38:59.172Z,23.30
2018-07-12T04:41:27.098Z,21.30
2018-07-12T04:43:55.045Z,20.97
2018-07-12T04:46:23.021Z,21.40
2018-07-12T04:48:51.013Z,21.90
2018-07-12T04:51:18.992Z,22.50
2018-07-12T04:53:46.947Z,22.17
2018-07-12T04:56:14.889Z,21.70
2018-07-12T04:58:42.859Z,21.30
2018-07-12T05:01:10.801Z,23.17
2018-07-12T05:03:38.729Z,22.80
2018-07-12T05:06:07.133Z,24.33
2018-07-12T05:08:35.340Z,22.00
2018-07-12T05:11:03.217Z,22.47
2018-07-12T05:13:31.190Z,22.63
2018-07-12T05:15:59.158Z,22.80
2018-07-12T05:18:27.125Z,24.23
2018-07-12T05:20:55.057Z,25.70
2018-07-12T05:23:22.995Z,23.87
2018-07-12T05:25:50.951Z,23.93
2018-07-12T05:28:18.962Z,23.40
2018-07-12T05:30:47.299Z,24.27
2018-07-12T05:33:15.420Z,23.70
2018-07-12T05:35:44.430Z,24.23
2018-07-12T05:38:13.522Z,24.80
2018-07-12T05:40:42.493Z,24.43
2018-07-12T05:43:11.579Z,26.00
2018-07-12T05:45:40.664Z,24.07
2018-07-12T05:48:09.695Z,25.43
2018-07-12T05:50:42.877Z,25.60
2018-07-12T05:53:11.922Z,24.30
2018-07-12T05:55:40.915Z,24.23
2018-07-12T05:58:10.095Z,24.23
2018-07-12T06:00:39.174Z,23.93
2018-07-12T06:03:09.536Z,23.87
2018-07-12T06:05:38.797Z,23.70
2018-07-12T06:08:07.833Z,22.37
2018-07-12T06:10:36.847Z,20.50
2018-07-12T06:13:05.844Z,22.03
2018-07-12T06:15:34.800Z,22.50
2018-07-12T06:18:03.817Z,21.33
2018-07-12T06:20:32.807Z,21.73
2018-07-12T06:23:01.766Z,20.83
2018-07-12T06:25:30.751Z,21.47
2018-07-12T06:27:59.700Z,21.93
2018-07-12T06:30:28.740Z,21.00
2018-07-12T06:32:57.713Z,19.87
2018-07-12T06:35:26.684Z,18.50
2018-07-12T06:37:55.698Z,19.63
2018-07-12T06:40:24.709Z,20.13
2018-07-12T06:42:53.671Z,20.73
2018-07-12T06:45:22.694Z,18.73
2018-07-12T06:47:51.680Z,18.53
2018-07-12T06:50:20.699Z,15.50
2018-07-12T06:52:49.778Z,13.97
2018-07-12T06:55:18.471Z,15.07
2018-07-12T06:57:48.848Z,13.07
2018-07-12T07:00:17.957Z,13.77
2018-07-12T07:02:46.918Z,13.77
2018-07-12T07:05:15.944Z,13.10
2018-07-12T07:07:45.002Z,12.80
2018-07-12T07:10:14.222Z,12.50
2018-07-12T07:12:43.194Z,12.20
2018-07-12T07:15:12.242Z,13.40
2018-07-12T07:17:41.340Z,11.90
2018-07-12T07:20:10.418Z,11.63
2018-07-12T07:22:39.824Z,11.37
2018-07-12T07:25:08.786Z,12.90
2018-07-12T07:27:38.294Z,11.90
2018-07-12T07:30:07.426Z,12.00
2018-07-12T07:32:36.511Z,11.80
2018-07-12T07:35:05.552Z,13.20
2018-07-12T07:37:34.718Z,11.17
2018-07-12T07:40:03.918Z,11.03
2018-07-12T07:42:32.912Z,12.53
2018-07-12T07:45:01.904Z,11.87
2018-07-12T07:47:30.990Z,11.00
2018-07-12T07:50:00.038Z,11.53
2018-07-12T07:52:35.535Z,11.13
2018-07-12T07:55:04.542Z,10.87
2018-07-12T07:57:33.630Z,11.17
2018-07-12T08:00:02.652Z,9.80
2018-07-12T08:02:31.636Z,10.67
2018-07-12T08:05:00.598Z,10.00
2018-07-12T08:07:29.616Z,10.13
2018-07-12T08:09:58.634Z,10.33
2018-07-12T08:12:27.594Z,11.33
2018-07-12T08:14:56.583Z,9.80
2018-07-12T08:17:25.592Z,10.87
2018-07-12T08:19:54.628Z,10.80
2018-07-12T08:22:23.668Z,10.07
2018-07-12T08:24:52.678Z,10.10
2018-07-12T08:27:21.858Z,9.93
2018-07-12T08:29:50.945Z,9.77
2018-07-12T08:32:19.960Z,9.43
2018-07-12T08:34:48.957Z,9.93
2018-07-12T08:37:18.337Z,9.00
2018-07-12T08:39:48.112Z,8.93
2018-07-12T08:42:17.823Z,8.97
2018-07-12T08:44:49.341Z,8.83
2018-07-12T08:47:21.055Z,8.30
2018-07-12T08:49:56.897Z,8.60
2018-07-12T08:52:27.005Z,7.67
2018-07-12T08:54:58.222Z,7.27
2018-07-12T08:57:28.401Z,8.10
2018-07-12T08:59:58.660Z,7.33
2018-07-12T09:02:32.692Z,7.70
2018-07-12T09:05:03.749Z,7.23
2018-07-12T09:07:34.722Z,7.53
2018-07-12T09:10:06.571Z,7.50
2018-07-12T09:12:37.114Z,7.70
2018-07-12T09:15:07.030Z,6.93
2018-07-12T09:17:37.790Z,7.03
2018-07-12T09:20:07.581Z,7.57
2018-07-12T09:22:37.928Z,6.83
2018-07-12T09:25:07.546Z,7.10
2018-07-12T09:27:38.332Z,7.30
2018-07-12T09:30:08.336Z,7.17
2018-07-12T09:32:39.240Z,8.20
2018-07-12T09:35:08.975Z,7.20
2018-07-12T09:37:38.741Z,7.87
2018-07-12T09:40:08.735Z,6.60
2018-07-12T09:42:39.081Z,6.67
2018-07-12T09:45:09.258Z,6.23
2018-07-12T09:47:40.100Z,6.77
2018-07-12T09:50:10.207Z,7.10
2018-07-12T09:52:40.933Z,7.53
2018-07-12T09:55:11.192Z,6.50
2018-07-12T09:57:52.211Z,7.50
2018-07-12T10:00:26.287Z,8.17
2018-07-12T10:03:01.538Z,7.60
2018-07-12T10:05:36.356Z,7.20
2018-07-12T10:08:11.482Z,8.20
2018-07-12T10:11:45.504Z,7.70
2018-07-12T10:14:20.560Z,7.70
2018-07-12T10:17:55.992Z,7.57
2018-07-12T10:20:25.496Z,6.37
2018-07-12T10:22:55.104Z,6.60
2018-07-12T10:25:24.712Z,7.37
2018-07-12T10:27:54.217Z,7.33
2018-07-12T10:30:23.835Z,7.13
2018-07-12T10:32:53.228Z,7.93
2018-07-12T10:35:22.646Z,8.50
2018-07-12T10:37:52.238Z,6.87
2018-07-12T10:40:21.644Z,7.20
2018-07-12T10:42:50.945Z,6.10
2018-07-12T10:45:20.445Z,7.47
2018-07-12T10:47:49.951Z,6.60
2018-07-12T10:50:19.456Z,6.73
2018-07-12T10:52:49.063Z,6.63
2018-07-12T10:55:18.365Z,6.57
2018-07-12T10:57:47.665Z,7.20
2018-07-12T11:00:16.867Z,5.90
2018-07-12T11:02:45.921Z,5.80
2018-07-12T11:05:15.131Z,6.93
2018-07-12T11:07:44.201Z,6.47
2018-07-12T11:10:13.365Z,6.23
2018-07-12T11:12:42.401Z,6.70
2018-07-12T11:15:11.452Z,6.23
2018-07-12T11:17:40.496Z,6.10
2018-07-12T11:20:10.142Z,6.20
2018-07-12T11:22:39.175Z,5.63
2018-07-12T11:25:08.193Z,6.27
2018-07-12T11:27:37.215Z,5.90
2018-07-12T11:30:06.449Z,5.43
2018-07-12T11:32:35.499Z,5.77
2018-07-12T11:35:04.509Z,5.77
2018-07-12T11:37:33.577Z,5.97
2018-07-12T11:40:02.573Z,5.23
2018-07-12T11:42:31.591Z,5.30
2018-07-12T11:45:00.659Z,5.43
2018-07-12T11:47:29.661Z,6.67
2018-07-12T11:49:58.709Z,5.03
2018-07-12T11:52:27.681Z,5.00
2018-07-12T11:54:56.693Z,4.70
2018-07-12T11:57:25.759Z,5.73
2018-07-12T11:59:54.779Z,5.00
2018-07-12T12:02:23.773Z,5.40
2018-07-12T12:04:53.023Z,5.90
2018-07-12T12:07:22.103Z,5.43
2018-07-12T12:09:51.031Z,5.60
2018-07-12T12:12:20.155Z,5.20
2018-07-12T12:14:49.172Z,5.97
2018-07-12T12:17:18.273Z,5.30
2018-07-12T12:19:47.412Z,4.83
2018-07-12T12:22:16.390Z,4.77
2018-07-12T12:24:45.433Z,4.37
2018-07-12T12:27:14.463Z,4.40
2018-07-12T12:29:43.517Z,4.30
2018-07-12T12:32:12.483Z,4.67
2018-07-12T12:34:41.579Z,4.60
2018-07-12T12:37:10.632Z,5.10
2018-07-12T12:39:39.745Z,4.90
2018-07-12T12:42:09.479Z,4.90
2018-07-12T12:44:38.573Z,5.20
2018-07-12T12:47:07.663Z,4.63
2018-07-12T12:49:36.727Z,4.63
2018-07-12T12:52:05.759Z,5.00
2018-07-12T12:54:34.751Z,4.77
2018-07-12T12:57:03.745Z,4.30
2018-07-12T12:59:32.835Z,3.70
2018-07-12T13:02:01.869Z,4.73
2018-07-12T13:04:30.876Z,4.60
2018-07-12T13:06:59.898Z,4.90
2018-07-12T13:09:28.736Z,5.10
2018-07-12T13:11:57.653Z,5.47
2018-07-12T13:14:26.721Z,5.00
2018-07-12T13:16:55.717Z,5.13
2018-07-12T13:19:24.738Z,4.87
2018-07-12T13:21:53.746Z,4.60
2018-07-12T13:24:22.793Z,4.87
2018-07-12T13:26:51.976Z,5.50
2018-07-12T13:29:21.070Z,4.50
2018-07-12T13:31:50.218Z,5.77
2018-07-12T13:34:19.330Z,6.50
2018-07-12T13:36:48.434Z,5.10
2018-07-12T13:39:17.485Z,4.37
2018-07-12T13:41:46.549Z,4.00
2018-07-12T13:44:24.759Z,4.00
2018-07-12T13:46:54.959Z,3.90
2018-07-12T13:49:24.027Z,4.60
2018-07-12T13:51:53.578Z,4.60
2018-07-12T13:54:22.674Z,3.90
2018-07-12T13:56:51.874Z,4.17
2018-07-12T13:59:20.910Z,3.90
2018-07-12T14:01:49.924Z,4.00
2018-07-12T14:04:18.910Z,3.93
2018-07-12T14:06:47.988Z,4.20
2018-07-12T14:09:17.109Z,4.70
2018-07-12T14:11:46.189Z,4.37
2018-07-12T14:14:15.289Z,5.13
2018-07-12T14:16:44.269Z,4.90
2018-07-12T14:19:13.270Z,4.13
2018-07-12T14:21:42.338Z,3.47
2018-07-12T14:24:11.349Z,3.90
2018-07-12T14:26:40.417Z,3.40
2018-07-12T14:29:09.499Z,3.47
2018-07-12T14:31:38.496Z,3.87
2018-07-12T14:34:07.591Z,3.87
2018-07-12T14:36:36.637Z,3.47
2018-07-12T14:39:07.227Z,3.63
2018-07-12T14:41:36.289Z,3.40
2018-07-12T14:44:05.413Z,3.40
2018-07-12T14:46:34.619Z,3.27
2018-07-12T14:49:03.827Z,2.93
2018-07-12T14:51:32.929Z,3.07
2018-07-12T14:54:02.141Z,3.10
2018-07-12T14:56:31.279Z,3.23
2018-07-12T14:59:00.492Z,3.37
2018-07-12T15:01:29.523Z,3.10
2018-07-12T15:03:58.535Z,3.10
2018-07-12T15:06:27.801Z,3.20
2018-07-12T15:08:56.828Z,2.90
2018-07-12T15:11:25.797Z,3.33
2018-07-12T15:13:54.781Z,3.37
2018-07-12T15:16:23.801Z,3.73
2018-07-12T15:18:52.823Z,3.90
2018-07-12T15:21:21.823Z,4.00
2018-07-12T15:23:50.802Z,4.00
2018-07-12T15:26:19.873Z,4.37
2018-07-12T15:28:48.889Z,3.90
2018-07-12T15:31:17.909Z,3.93
2018-07-12T15:33:46.881Z,3.70
2018-07-12T15:36:15.641Z,3.70
2018-07-12T15:38:44.538Z,3.37
2018-07-12T15:41:13.589Z,3.47
2018-07-12T15:43:42.678Z,3.13
2018-07-12T15:46:11.676Z,4.20
2018-07-12T15:48:40.718Z,3.73
2018-07-12T15:51:09.725Z,4.10
2018-07-12T15:53:38.861Z,3.43
2018-07-12T15:56:07.807Z,4.47
2018-07-12T15:58:36.792Z,4.17
2018-07-12T16:01:05.886Z,3.70
2018-07-12T16:03:34.924Z,3.60
2018-07-12T16:06:04.027Z,4.10
2018-07-12T16:08:33.122Z,4.40
2018-07-12T16:11:02.183Z,4.60
2018-07-12T16:13:31.249Z,4.20
2018-07-12T16:16:00.290Z,3.90
2018-07-12T16:18:29.402Z,4.00
2018-07-12T16:20:58.448Z,5.53
2018-07-12T16:23:27.445Z,4.00
2018-07-12T16:25:56.428Z,3.90
2018-07-12T16:28:25.463Z,3.90
2018-07-12T16:30:54.470Z,3.30
2018-07-12T16:33:23.440Z,3.50
2018-07-12T16:35:52.478Z,3.70
2018-07-12T16:38:21.454Z,3.40
2018-07-12T16:40:50.513Z,3.50
2018-07-12T16:43:19.526Z,3.93
2018-07-12T16:45:48.480Z,3.80
2018-07-12T16:48:17.482Z,3.50
2018-07-12T16:50:46.573Z,3.40
2018-07-12T16:53:15.572Z,3.40
2018-07-12T16:55:44.658Z,3.30
2018-07-12T16:58:13.707Z,3.17
2018-07-12T17:00:42.783Z,3.70
2018-07-12T17:03:11.838Z,3.20
2018-07-12T17:05:40.870Z,3.60
2018-07-12T17:08:09.885Z,3.40
2018-07-12T17:10:39.394Z,3.23
2018-07-12T17:13:08.611Z,3.70
2018-07-12T17:15:37.646Z,3.57
2018-07-12T17:18:06.662Z,3.27
2018-07-12T17:20:35.434Z,2.80
2018-07-12T17:23:04.374Z,2.83
2018-07-12T17:25:34.210Z,2.97
2018-07-12T17:28:03.360Z,3.33
2018-07-12T17:30:32.398Z,3.67
2018-07-12T17:33:01.550Z,3.70
2018-07-12T17:35:30.575Z,3.37
2018-07-12T17:37:59.596Z,3.17
2018-07-12T17:40:28.581Z,3.40
2018-07-12T17:42:57.597Z,3.10
2018-07-12T17:45:26.594Z,3.30
2018-07-12T17:47:55.625Z,3.40
2018-07-12T17:50:24.768Z,3.57
2018-07-12T17:52:53.809Z,3.80
2018-07-12T17:55:22.837Z,3.50
2018-07-12T17:57:51.810Z,3.10
2018-07-12T18:00:20.823Z,3.47
2018-07-12T18:02:50.276Z,3.67
2018-07-12T18:05:19.281Z,3.40
2018-07-12T18:07:48.234Z,3.37
2018-07-12T18:10:17.583Z,3.33
2018-07-12T18:12:46.734Z,3.30
2018-07-12T18:15:15.818Z,3.50
2018-07-12T18:17:44.833Z,3.30
2018-07-12T18:20:14.113Z,4.10
2018-07-12T18:22:43.146Z,3.33
2018-07-12T18:25:12.534Z,3.70
2018-07-12T18:27:41.413Z,3.27
2018-07-12T18:30:10.413Z,3.17
2018-07-12T18:32:39.689Z,3.50
2018-07-12T18:35:08.763Z,3.30
2018-07-12T18:37:38.118Z,3.10
2018-07-12T18:40:07.133Z,3.20
2018-07-12T18:42:36.733Z,3.60
2018-07-12T18:45:05.742Z,2.73
2018-07-12T18:47:34.839Z,2.90
2018-07-12T18:50:04.035Z,4.53
2018-07-12T18:52:33.365Z,2.53
2018-07-12T18:55:02.333Z,2.80
2018-07-12T18:57:31.357Z,2.57
2018-07-12T19:00:00.374Z,2.93
2018-07-12T19:05:29.231Z,2.87
2018-07-12T19:07:58.327Z,2.90
2018-07-12T19:10:27.297Z,2.87
2018-07-12T19:12:56.325Z,3.03
2018-07-12T19:15:25.317Z,3.20
2018-07-12T19:17:54.408Z,3.00
2018-07-12T19:20:23.422Z,2.90
2018-07-12T19:22:52.493Z,3.00
2018-07-12T19:25:21.629Z,2.80
2018-07-12T19:27:50.642Z,3.33
2018-07-12T19:30:19.571Z,2.67
2018-07-12T19:32:48.581Z,2.90
2018-07-12T19:35:17.685Z,2.90
2018-07-12T19:37:46.701Z,3.00
2018-07-12T19:40:15.749Z,3.17
2018-07-12T19:42:44.792Z,2.90
2018-07-12T19:45:13.789Z,3.00
2018-07-12T19:47:42.832Z,3.07
2018-07-12T19:50:12.005Z,3.07
2018-07-12T19:52:41.030Z,3.10
2018-07-12T19:55:10.118Z,2.90
2018-07-12T19:57:39.139Z,3.20
2018-07-12T20:00:08.180Z,3.13
2018-07-12T20:02:37.224Z,3.40
2018-07-12T20:05:06.212Z,3.40
2018-07-12T20:07:35.179Z,3.20
2018-07-12T20:10:03.908Z,3.43
2018-07-12T20:12:32.840Z,3.50
2018-07-12T20:15:01.840Z,3.90
2018-07-12T20:17:30.588Z,3.80
2018-07-12T20:19:59.504Z,3.60
2018-07-12T20:22:28.584Z,3.67
2018-07-12T20:24:57.626Z,3.73
2018-07-12T20:27:26.588Z,4.10
2018-07-12T20:29:55.714Z,4.10
2018-07-12T20:32:24.772Z,4.00
2018-07-12T20:34:53.787Z,4.10
2018-07-12T20:37:22.760Z,4.03
2018-07-12T20:39:51.714Z,4.03
2018-07-12T20:42:20.722Z,4.10
2018-07-12T20:44:49.756Z,4.10
2018-07-12T20:47:18.772Z,4.17
2018-07-12T20:49:47.714Z,3.43
2018-07-12T20:52:16.718Z,4.30
2018-07-12T20:54:45.781Z,4.47
2018-07-12T20:57:15.466Z,4.03
2018-07-12T20:59:44.460Z,3.70
2018-07-12T21:02:13.441Z,4.03
2018-07-12T21:04:42.437Z,4.10
2018-07-12T21:07:11.448Z,4.00
2018-07-12T21:09:40.413Z,3.73
2018-07-12T21:12:09.413Z,3.90
2018-07-12T21:14:38.445Z,4.13
2018-07-12T21:17:07.418Z,4.00
2018-07-12T21:19:36.396Z,3.67
2018-07-12T21:22:05.384Z,4.27
2018-07-12T21:24:34.378Z,4.47
2018-07-12T21:27:03.367Z,4.43
2018-07-12T21:29:32.357Z,5.00
2018-07-12T21:32:01.442Z,4.70
2018-07-12T21:34:30.450Z,4.50
2018-07-12T21:36:59.422Z,5.47
2018-07-12T21:39:28.378Z,6.30
2018-07-12T21:41:57.445Z,6.10
2018-07-12T21:44:26.559Z,5.97
2018-07-12T21:46:55.840Z,5.60
2018-07-12T21:49:25.514Z,6.70
2018-07-12T21:51:54.504Z,7.07
2018-07-12T21:54:23.528Z,6.37
2018-07-12T21:56:52.624Z,6.13
2018-07-12T21:59:21.589Z,7.07
2018-07-12T22:01:50.597Z,7.37
2018-07-12T22:04:19.608Z,7.00
2018-07-12T22:07:02.122Z,7.27
2018-07-12T22:09:32.261Z,7.33
2018-07-12T22:12:01.288Z,7.10
2018-07-12T22:14:30.285Z,7.27
2018-07-12T22:16:59.271Z,7.60
2018-07-12T22:19:28.380Z,7.43
2018-07-12T22:21:57.433Z,7.23
2018-07-12T22:24:26.446Z,7.40
2018-07-12T22:26:55.453Z,6.83
2018-07-12T22:29:24.435Z,7.03
2018-07-12T22:31:53.421Z,7.33
2018-07-12T22:34:22.477Z,7.00
2018-07-12T22:36:51.445Z,6.93
2018-07-12T22:39:20.402Z,7.67
2018-07-12T22:41:49.510Z,7.40
2018-07-12T22:44:18.565Z,7.40
2018-07-12T22:46:47.564Z,6.93
2018-07-12T22:49:16.528Z,7.43
2018-07-12T22:51:45.500Z,7.10
2018-07-12T22:54:14.232Z,7.57
2018-07-12T22:56:43.162Z,7.80
2018-07-12T22:59:12.146Z,7.27
2018-07-12T23:01:41.162Z,7.40
2018-07-12T23:04:10.122Z,7.40
2018-07-12T23:06:39.162Z,7.30
2018-07-12T23:09:08.280Z,7.40
2018-07-12T23:11:37.249Z,6.97
2018-07-12T23:14:05.988Z,7.50
2018-07-12T23:16:35.218Z,7.27
2018-07-12T23:19:04.190Z,7.67
2018-07-12T23:21:33.190Z,7.13
2018-07-12T23:24:02.232Z,7.10
2018-07-12T23:26:31.422Z,8.00
2018-07-12T23:29:00.448Z,7.37
2018-07-12T23:31:29.524Z,7.53
2018-07-12T23:33:58.518Z,8.30
2018-07-12T23:36:27.581Z,10.03
2018-07-12T23:38:56.591Z,9.13
2018-07-12T23:41:25.828Z,10.03
2018-07-12T23:43:54.909Z,9.93
2018-07-12T23:46:23.923Z,10.50
2018-07-12T23:48:52.968Z,10.70
2018-07-12T23:51:21.952Z,10.47
2018-07-12T23:53:51.045Z,9.50
2018-07-12T23:56:20.148Z,10.47
2018-07-12T23:58:49.374Z,10.03
